メインページ
METAR-TAF:

METAR-TAF

空港 :

Edson, アルバータ州, カナダ

緯度: 53-35N, 経度: 116-28W, 海抜: 921m

現時点の気象観測

当レポートは22分前の18:00(UTC)に作成
西/南西の風 10kt、最大18ktの突風を伴う、から西の間で変化する
気温 11°C
湿度 47%
気圧 999 hPa
視程: 14.5km
晴天

METAR: CYET 171800Z AUTO 25010G18KT 190V270 9SM CLR 11/00 A2950 RMK SLP013 DENSITY ALT 3700FT

時間: 11:22 (18:22 UTC)


TAF: 見つかりません

4,000以上の空港の気象観測と天気予報(METAR報とTAF報)

利用可能な観測所は地図上に黄色い丸と赤い丸で示す。

丸の上にカーソルを重ねると観測所名を参照できる。

次にクリックすると気象観測と天気予報を参照できる。

マップの切り替え:黒色「×」印の緑ボタンをクリックして拡大、「-」印の緑ボタンをクリックして縮小、緑色の三角印をクリックして隣りの地図に切り替え


METAR-TAF: